sensor_id;sensor_type;location;lat;lon;timestamp;P1;durP1;ratioP1;P2;durP2;ratioP2
37237;SDS011;23129;49.662;8.448;2023-03-01T00:01:46;6.03;;;3.28;;
37237;SDS011;23129;49.662;8.448;2023-03-01T00:04:16;4.22;;;3.03;;
37237;SDS011;23129;49.662;8.448;2023-03-01T00:06:44;10.48;;;4.75;;
37237;SDS011;23129;49.662;8.448;2023-03-01T00:09:13;8.23;;;4.22;;
37237;SDS011;23129;49.662;8.448;2023-03-01T00:11:43;8.60;;;4.45;;
37237;SDS011;23129;49.662;8.448;2023-03-01T00:14:11;10.40;;;5.65;;
37237;SDS011;23129;49.662;8.448;2023-03-01T00:16:43;7.55;;;4.88;;
37237;SDS011;23129;49.662;8.448;2023-03-01T00:19:13;9.90;;;4.90;;
37237;SDS011;23129;49.662;8.448;2023-03-01T00:21:44;11.23;;;5.05;;
37237;SDS011;23129;49.662;8.448;2023-03-01T00:24:13;11.63;;;5.93;;
37237;SDS011;23129;49.662;8.448;2023-03-01T00:26:42;8.52;;;4.90;;
37237;SDS011;23129;49.662;8.448;2023-03-01T00:29:11;9.43;;;5.88;;
37237;SDS011;23129;49.662;8.448;2023-03-01T00:31:39;8.23;;;4.50;;
37237;SDS011;23129;49.662;8.448;2023-03-01T00:34:09;15.15;;;5.68;;
37237;SDS011;23129;49.662;8.448;2023-03-01T00:36:38;5.63;;;4.32;;
37237;SDS011;23129;49.662;8.448;2023-03-01T00:39:09;9.93;;;4.68;;
37237;SDS011;23129;49.662;8.448;2023-03-01T00:41:40;7.20;;;3.20;;
37237;SDS011;23129;49.662;8.448;2023-03-01T00:44:10;8.57;;;4.18;;
37237;SDS011;23129;49.662;8.448;2023-03-01T00:46:39;9.38;;;4.82;;
37237;SDS011;23129;49.662;8.448;2023-03-01T00:49:07;6.50;;;4.18;;
37237;SDS011;23129;49.662;8.448;2023-03-01T00:51:36;9.27;;;4.75;;
37237;SDS011;23129;49.662;8.448;2023-03-01T00:54:07;10.40;;;5.15;;
37237;SDS011;23129;49.662;8.448;2023-03-01T00:56:36;9.10;;;5.35;;
37237;SDS011;23129;49.662;8.448;2023-03-01T00:59:05;6.78;;;4.80;;
37237;SDS011;23129;49.662;8.448;2023-03-01T01:01:33;9.80;;;5.75;;
37237;SDS011;23129;49.662;8.448;2023-03-01T01:04:02;10.50;;;5.45;;
37237;SDS011;23129;49.662;8.448;2023-03-01T01:06:33;10.73;;;6.22;;
37237;SDS011;23129;49.662;8.448;2023-03-01T01:09:05;5.88;;;4.35;;
37237;SDS011;23129;49.662;8.448;2023-03-01T01:11:34;10.95;;;6.07;;
37237;SDS011;23129;49.662;8.448;2023-03-01T01:14:03;9.38;;;6.00;;
37237;SDS011;23129;49.662;8.448;2023-03-01T01:16:32;16.20;;;5.63;;
37237;SDS011;23129;49.662;8.448;2023-03-01T01:19:01;4.70;;;4.22;;
37237;SDS011;23129;49.662;8.448;2023-03-01T01:21:30;14.32;;;5.78;;
37237;SDS011;23129;49.662;8.448;2023-03-01T01:23:59;15.45;;;6.43;;
37237;SDS011;23129;49.662;8.448;2023-03-01T01:26:30;8.60;;;4.90;;
37237;SDS011;23129;49.662;8.448;2023-03-01T01:29:01;11.80;;;5.75;;
37237;SDS011;23129;49.662;8.448;2023-03-01T01:31:31;9.23;;;5.03;;
37237;SDS011;23129;49.662;8.448;2023-03-01T01:34:01;13.52;;;5.43;;
37237;SDS011;23129;49.662;8.448;2023-03-01T01:36:32;21.98;;;6.22;;
37237;SDS011;23129;49.662;8.448;2023-03-01T01:39:00;12.02;;;7.03;;
37237;SDS011;23129;49.662;8.448;2023-03-01T01:41:31;8.93;;;5.28;;
37237;SDS011;23129;49.662;8.448;2023-03-01T01:44:10;14.63;;;6.53;;
37237;SDS011;23129;49.662;8.448;2023-03-01T01:46:42;12.40;;;5.57;;
37237;SDS011;23129;49.662;8.448;2023-03-01T01:49:23;16.25;;;5.68;;
37237;SDS011;23129;49.662;8.448;2023-03-01T01:52:03;15.75;;;6.70;;
37237;SDS011;23129;49.662;8.448;2023-03-01T01:54:39;19.85;;;6.22;;
37237;SDS011;23129;49.662;8.448;2023-03-01T01:57:15;13.88;;;6.40;;
37237;SDS011;23129;49.662;8.448;2023-03-01T01:59:49;15.13;;;4.95;;
37237;SDS011;23129;49.662;8.448;2023-03-01T02:02:21;12.18;;;5.43;;
37237;SDS011;23129;49.662;8.448;2023-03-01T02:04:52;12.07;;;4.78;;
37237;SDS011;23129;49.662;8.448;2023-03-01T02:07:29;8.57;;;5.28;;
37237;SDS011;23129;49.662;8.448;2023-03-01T02:09:58;10.68;;;5.55;;
37237;SDS011;23129;49.662;8.448;2023-03-01T02:12:29;10.75;;;6.50;;
37237;SDS011;23129;49.662;8.448;2023-03-01T02:14:57;9.68;;;5.88;;
37237;SDS011;23129;49.662;8.448;2023-03-01T02:17:26;13.20;;;6.45;;
37237;SDS011;23129;49.662;8.448;2023-03-01T02:19:59;8.90;;;5.07;;
37237;SDS011;23129;49.662;8.448;2023-03-01T02:22:41;11.07;;;6.38;;
37237;SDS011;23129;49.662;8.448;2023-03-01T02:27:58;11.23;;;4.90;;
37237;SDS011;23129;49.662;8.448;2023-03-01T02:30:37;11.07;;;5.15;;
37237;SDS011;23129;49.662;8.448;2023-03-01T02:33:27;12.55;;;6.05;;
37237;SDS011;23129;49.662;8.448;2023-03-01T02:36:00;16.13;;;6.25;;
37237;SDS011;23129;49.662;8.448;2023-03-01T02:38:32;10.98;;;5.72;;
37237;SDS011;23129;49.662;8.448;2023-03-01T02:41:00;8.77;;;6.20;;
37237;SDS011;23129;49.662;8.448;2023-03-01T02:43:32;14.15;;;6.65;;
37237;SDS011;23129;49.662;8.448;2023-03-01T02:46:05;10.50;;;6.22;;
37237;SDS011;23129;49.662;8.448;2023-03-01T02:48:39;13.05;;;6.85;;
37237;SDS011;23129;49.662;8.448;2023-03-01T02:51:13;16.92;;;7.15;;
37237;SDS011;23129;49.662;8.448;2023-03-01T02:54:07;12.85;;;5.75;;
37237;SDS011;23129;49.662;8.448;2023-03-01T02:56:45;14.73;;;6.93;;
37237;SDS011;23129;49.662;8.448;2023-03-01T02:59:19;14.93;;;7.05;;
37237;SDS011;23129;49.662;8.448;2023-03-01T03:01:53;13.90;;;7.65;;
37237;SDS011;23129;49.662;8.448;2023-03-01T03:04:21;14.82;;;8.23;;
37237;SDS011;23129;49.662;8.448;2023-03-01T03:06:50;18.10;;;7.68;;
37237;SDS011;23129;49.662;8.448;2023-03-01T03:09:18;9.10;;;5.05;;
37237;SDS011;23129;49.662;8.448;2023-03-01T03:11:48;13.95;;;6.93;;
37237;SDS011;23129;49.662;8.448;2023-03-01T03:14:17;8.48;;;5.45;;
37237;SDS011;23129;49.662;8.448;2023-03-01T03:16:48;12.70;;;6.68;;
37237;SDS011;23129;49.662;8.448;2023-03-01T03:19:19;19.20;;;7.05;;
37237;SDS011;23129;49.662;8.448;2023-03-01T03:21:48;9.25;;;5.45;;
37237;SDS011;23129;49.662;8.448;2023-03-01T03:24:16;10.73;;;5.28;;
37237;SDS011;23129;49.662;8.448;2023-03-01T03:26:45;9.98;;;6.13;;
37237;SDS011;23129;49.662;8.448;2023-03-01T03:29:13;11.85;;;6.30;;
37237;SDS011;23129;49.662;8.448;2023-03-01T03:31:42;8.70;;;5.10;;
37237;SDS011;23129;49.662;8.448;2023-03-01T03:34:11;12.27;;;5.68;;
37237;SDS011;23129;49.662;8.448;2023-03-01T03:36:45;10.68;;;6.43;;
37237;SDS011;23129;49.662;8.448;2023-03-01T03:39:14;12.60;;;7.03;;
37237;SDS011;23129;49.662;8.448;2023-03-01T03:41:45;13.73;;;6.22;;
37237;SDS011;23129;49.662;8.448;2023-03-01T03:44:14;9.95;;;5.35;;
37237;SDS011;23129;49.662;8.448;2023-03-01T03:46:43;9.73;;;5.00;;
37237;SDS011;23129;49.662;8.448;2023-03-01T03:49:11;13.05;;;3.50;;
37237;SDS011;23129;49.662;8.448;2023-03-01T03:51:40;11.77;;;6.25;;
37237;SDS011;23129;49.662;8.448;2023-03-01T03:54:10;18.60;;;7.22;;
37237;SDS011;23129;49.662;8.448;2023-03-01T03:56:38;11.98;;;4.63;;
37237;SDS011;23129;49.662;8.448;2023-03-01T03:59:06;12.38;;;6.00;;
37237;SDS011;23129;49.662;8.448;2023-03-01T04:01:37;15.07;;;7.45;;
37237;SDS011;23129;49.662;8.448;2023-03-01T04:04:06;12.15;;;7.00;;
37237;SDS011;23129;49.662;8.448;2023-03-01T04:06:34;16.75;;;8.43;;
37237;SDS011;23129;49.662;8.448;2023-03-01T04:09:03;13.00;;;7.03;;
37237;SDS011;23129;49.662;8.448;2023-03-01T04:11:32;12.95;;;6.32;;
37237;SDS011;23129;49.662;8.448;2023-03-01T04:14:01;17.38;;;6.85;;
37237;SDS011;23129;49.662;8.448;2023-03-01T04:16:30;12.18;;;6.32;;
37237;SDS011;23129;49.662;8.448;2023-03-01T04:18:59;10.65;;;5.70;;
37237;SDS011;23129;49.662;8.448;2023-03-01T04:21:28;8.20;;;4.82;;
37237;SDS011;23129;49.662;8.448;2023-03-01T04:23:56;12.93;;;7.70;;
37237;SDS011;23129;49.662;8.448;2023-03-01T04:26:25;14.88;;;6.55;;
37237;SDS011;23129;49.662;8.448;2023-03-01T04:28:56;12.63;;;6.50;;
37237;SDS011;23129;49.662;8.448;2023-03-01T04:31:24;13.32;;;6.72;;
37237;SDS011;23129;49.662;8.448;2023-03-01T04:33:53;11.02;;;5.10;;
37237;SDS011;23129;49.662;8.448;2023-03-01T04:36:23;11.32;;;6.45;;
37237;SDS011;23129;49.662;8.448;2023-03-01T04:38:53;15.55;;;6.20;;
37237;SDS011;23129;49.662;8.448;2023-03-01T04:41:22;11.70;;;6.68;;
37237;SDS011;23129;49.662;8.448;2023-03-01T04:43:52;12.80;;;7.00;;
37237;SDS011;23129;49.662;8.448;2023-03-01T04:46:21;10.95;;;6.25;;
37237;SDS011;23129;49.662;8.448;2023-03-01T04:48:50;12.15;;;5.82;;
37237;SDS011;23129;49.662;8.448;2023-03-01T04:51:19;15.60;;;6.35;;
37237;SDS011;23129;49.662;8.448;2023-03-01T04:53:47;14.43;;;6.50;;
37237;SDS011;23129;49.662;8.448;2023-03-01T04:56:16;10.40;;;5.25;;
37237;SDS011;23129;49.662;8.448;2023-03-01T04:58:45;18.55;;;7.32;;
37237;SDS011;23129;49.662;8.448;2023-03-01T05:01:14;16.65;;;8.40;;
37237;SDS011;23129;49.662;8.448;2023-03-01T05:03:47;12.07;;;6.53;;
37237;SDS011;23129;49.662;8.448;2023-03-01T05:06:18;12.23;;;6.85;;
37237;SDS011;23129;49.662;8.448;2023-03-01T05:08:47;7.43;;;5.03;;
37237;SDS011;23129;49.662;8.448;2023-03-01T05:11:16;15.18;;;5.80;;
37237;SDS011;23129;49.662;8.448;2023-03-01T05:13:44;13.13;;;6.50;;
37237;SDS011;23129;49.662;8.448;2023-03-01T05:16:12;13.05;;;7.13;;
37237;SDS011;23129;49.662;8.448;2023-03-01T05:18:41;10.23;;;5.45;;
37237;SDS011;23129;49.662;8.448;2023-03-01T05:21:11;13.57;;;6.70;;
37237;SDS011;23129;49.662;8.448;2023-03-01T05:23:42;11.85;;;5.15;;
37237;SDS011;23129;49.662;8.448;2023-03-01T05:26:13;9.10;;;5.13;;
37237;SDS011;23129;49.662;8.448;2023-03-01T05:28:53;11.82;;;7.15;;
37237;SDS011;23129;49.662;8.448;2023-03-01T05:31:25;9.93;;;6.35;;
37237;SDS011;23129;49.662;8.448;2023-03-01T05:33:54;11.68;;;5.35;;
37237;SDS011;23129;49.662;8.448;2023-03-01T05:36:24;18.73;;;8.23;;
37237;SDS011;23129;49.662;8.448;2023-03-01T05:38:52;8.95;;;5.18;;
37237;SDS011;23129;49.662;8.448;2023-03-01T05:41:22;13.50;;;7.43;;
37237;SDS011;23129;49.662;8.448;2023-03-01T05:43:50;10.77;;;5.18;;
37237;SDS011;23129;49.662;8.448;2023-03-01T05:46:19;14.65;;;7.03;;
37237;SDS011;23129;49.662;8.448;2023-03-01T05:48:50;17.17;;;7.25;;
37237;SDS011;23129;49.662;8.448;2023-03-01T05:51:18;20.48;;;7.38;;
37237;SDS011;23129;49.662;8.448;2023-03-01T05:53:49;15.07;;;8.15;;
37237;SDS011;23129;49.662;8.448;2023-03-01T05:56:18;17.52;;;8.63;;
37237;SDS011;23129;49.662;8.448;2023-03-01T05:58:48;18.42;;;7.72;;
37237;SDS011;23129;49.662;8.448;2023-03-01T06:01:17;17.10;;;7.35;;
37237;SDS011;23129;49.662;8.448;2023-03-01T06:03:46;14.60;;;8.35;;
37237;SDS011;23129;49.662;8.448;2023-03-01T06:06:14;22.70;;;8.95;;
37237;SDS011;23129;49.662;8.448;2023-03-01T06:08:43;19.08;;;9.30;;
37237;SDS011;23129;49.662;8.448;2023-03-01T06:11:13;21.48;;;7.45;;
37237;SDS011;23129;49.662;8.448;2023-03-01T06:13:41;19.30;;;7.32;;
37237;SDS011;23129;49.662;8.448;2023-03-01T06:16:10;23.17;;;9.05;;
37237;SDS011;23129;49.662;8.448;2023-03-01T06:18:39;13.73;;;7.72;;
37237;SDS011;23129;49.662;8.448;2023-03-01T06:21:08;13.10;;;6.20;;
37237;SDS011;23129;49.662;8.448;2023-03-01T06:23:37;27.27;;;10.00;;
37237;SDS011;23129;49.662;8.448;2023-03-01T06:26:06;20.02;;;8.73;;
37237;SDS011;23129;49.662;8.448;2023-03-01T06:28:37;21.40;;;8.68;;
37237;SDS011;23129;49.662;8.448;2023-03-01T06:31:05;15.63;;;7.95;;
37237;SDS011;23129;49.662;8.448;2023-03-01T06:33:35;13.05;;;6.63;;
37237;SDS011;23129;49.662;8.448;2023-03-01T06:36:03;18.98;;;7.95;;
37237;SDS011;23129;49.662;8.448;2023-03-01T06:38:32;15.45;;;8.00;;
37237;SDS011;23129;49.662;8.448;2023-03-01T06:41:01;16.98;;;9.18;;
37237;SDS011;23129;49.662;8.448;2023-03-01T06:43:29;25.73;;;10.90;;
37237;SDS011;23129;49.662;8.448;2023-03-01T06:45:58;18.60;;;9.02;;
37237;SDS011;23129;49.662;8.448;2023-03-01T06:48:27;13.10;;;7.20;;
37237;SDS011;23129;49.662;8.448;2023-03-01T06:50:57;15.05;;;8.48;;
37237;SDS011;23129;49.662;8.448;2023-03-01T06:53:27;20.70;;;8.68;;
37237;SDS011;23129;49.662;8.448;2023-03-01T06:55:55;19.83;;;8.35;;
37237;SDS011;23129;49.662;8.448;2023-03-01T06:58:26;14.88;;;7.90;;
37237;SDS011;23129;49.662;8.448;2023-03-01T07:00:54;20.50;;;9.15;;
37237;SDS011;23129;49.662;8.448;2023-03-01T07:03:24;22.42;;;8.73;;
37237;SDS011;23129;49.662;8.448;2023-03-01T07:05:53;21.92;;;9.27;;
37237;SDS011;23129;49.662;8.448;2023-03-01T07:08:21;16.88;;;9.05;;
37237;SDS011;23129;49.662;8.448;2023-03-01T07:10:54;31.33;;;10.63;;
37237;SDS011;23129;49.662;8.448;2023-03-01T07:13:23;17.88;;;8.38;;
37237;SDS011;23129;49.662;8.448;2023-03-01T07:15:51;25.23;;;8.45;;
37237;SDS011;23129;49.662;8.448;2023-03-01T07:18:20;16.33;;;8.18;;
37237;SDS011;23129;49.662;8.448;2023-03-01T07:20:50;20.65;;;10.50;;
37237;SDS011;23129;49.662;8.448;2023-03-01T07:23:18;21.85;;;9.05;;
37237;SDS011;23129;49.662;8.448;2023-03-01T07:25:50;15.10;;;7.10;;
37237;SDS011;23129;49.662;8.448;2023-03-01T07:28:20;15.95;;;8.55;;
37237;SDS011;23129;49.662;8.448;2023-03-01T07:30:50;17.85;;;8.30;;
37237;SDS011;23129;49.662;8.448;2023-03-01T07:33:19;19.70;;;9.13;;
37237;SDS011;23129;49.662;8.448;2023-03-01T07:35:49;18.23;;;8.85;;
37237;SDS011;23129;49.662;8.448;2023-03-01T07:38:25;20.65;;;9.77;;
37237;SDS011;23129;49.662;8.448;2023-03-01T07:40:54;17.52;;;9.07;;
37237;SDS011;23129;49.662;8.448;2023-03-01T07:43:26;22.00;;;9.55;;
37237;SDS011;23129;49.662;8.448;2023-03-01T07:45:54;21.77;;;8.90;;
37237;SDS011;23129;49.662;8.448;2023-03-01T07:48:25;17.20;;;9.00;;
37237;SDS011;23129;49.662;8.448;2023-03-01T07:50:55;18.92;;;8.80;;
37237;SDS011;23129;49.662;8.448;2023-03-01T07:53:26;17.80;;;9.10;;
37237;SDS011;23129;49.662;8.448;2023-03-01T07:56:00;23.30;;;10.25;;
37237;SDS011;23129;49.662;8.448;2023-03-01T07:58:30;23.67;;;11.23;;
37237;SDS011;23129;49.662;8.448;2023-03-01T08:01:01;17.35;;;8.48;;
37237;SDS011;23129;49.662;8.448;2023-03-01T08:03:29;18.83;;;10.25;;
37237;SDS011;23129;49.662;8.448;2023-03-01T08:06:00;20.05;;;8.82;;
37237;SDS011;23129;49.662;8.448;2023-03-01T08:08:29;22.48;;;10.25;;
37237;SDS011;23129;49.662;8.448;2023-03-01T08:10:58;15.75;;;9.80;;
37237;SDS011;23129;49.662;8.448;2023-03-01T08:13:28;20.88;;;9.90;;
37237;SDS011;23129;49.662;8.448;2023-03-01T08:16:00;22.05;;;9.43;;
37237;SDS011;23129;49.662;8.448;2023-03-01T08:18:30;15.73;;;8.85;;
37237;SDS011;23129;49.662;8.448;2023-03-01T08:21:02;28.08;;;11.30;;
37237;SDS011;23129;49.662;8.448;2023-03-01T08:23:31;30.17;;;13.68;;
37237;SDS011;23129;49.662;8.448;2023-03-01T08:26:04;29.30;;;11.43;;
37237;SDS011;23129;49.662;8.448;2023-03-01T08:28:34;22.15;;;10.25;;
37237;SDS011;23129;49.662;8.448;2023-03-01T08:31:02;16.65;;;10.65;;
37237;SDS011;23129;49.662;8.448;2023-03-01T08:33:40;16.23;;;9.15;;
37237;SDS011;23129;49.662;8.448;2023-03-01T08:36:10;24.67;;;11.27;;
37237;SDS011;23129;49.662;8.448;2023-03-01T08:38:38;23.83;;;11.10;;
37237;SDS011;23129;49.662;8.448;2023-03-01T08:41:06;19.67;;;9.75;;
37237;SDS011;23129;49.662;8.448;2023-03-01T08:43:35;22.98;;;9.98;;
37237;SDS011;23129;49.662;8.448;2023-03-01T08:46:03;19.63;;;9.07;;
37237;SDS011;23129;49.662;8.448;2023-03-01T08:48:32;21.60;;;11.32;;
37237;SDS011;23129;49.662;8.448;2023-03-01T08:51:07;21.35;;;10.07;;
37237;SDS011;23129;49.662;8.448;2023-03-01T08:53:39;16.73;;;9.55;;
37237;SDS011;23129;49.662;8.448;2023-03-01T08:56:08;19.90;;;10.13;;
37237;SDS011;23129;49.662;8.448;2023-03-01T08:58:36;24.08;;;10.30;;
37237;SDS011;23129;49.662;8.448;2023-03-01T09:01:06;20.67;;;10.82;;
37237;SDS011;23129;49.662;8.448;2023-03-01T09:03:35;19.88;;;10.43;;
37237;SDS011;23129;49.662;8.448;2023-03-01T09:06:05;17.55;;;9.23;;
37237;SDS011;23129;49.662;8.448;2023-03-01T09:08:36;19.25;;;9.50;;
37237;SDS011;23129;49.662;8.448;2023-03-01T09:11:07;24.25;;;10.40;;
37237;SDS011;23129;49.662;8.448;2023-03-01T09:13:38;20.65;;;10.48;;
37237;SDS011;23129;49.662;8.448;2023-03-01T09:16:10;21.42;;;9.85;;
37237;SDS011;23129;49.662;8.448;2023-03-01T09:18:40;21.88;;;10.38;;
37237;SDS011;23129;49.662;8.448;2023-03-01T09:21:10;22.08;;;9.48;;
37237;SDS011;23129;49.662;8.448;2023-03-01T09:23:41;23.40;;;9.55;;
37237;SDS011;23129;49.662;8.448;2023-03-01T09:26:12;19.00;;;10.45;;
37237;SDS011;23129;49.662;8.448;2023-03-01T09:28:45;25.52;;;9.90;;
37237;SDS011;23129;49.662;8.448;2023-03-01T09:31:14;15.95;;;9.32;;
37237;SDS011;23129;49.662;8.448;2023-03-01T09:33:45;22.05;;;10.10;;
37237;SDS011;23129;49.662;8.448;2023-03-01T09:36:15;15.32;;;8.90;;
37237;SDS011;23129;49.662;8.448;2023-03-01T09:38:48;20.00;;;10.05;;
37237;SDS011;23129;49.662;8.448;2023-03-01T09:41:24;19.23;;;9.35;;
37237;SDS011;23129;49.662;8.448;2023-03-01T09:44:08;17.30;;;8.50;;
37237;SDS011;23129;49.662;8.448;2023-03-01T09:46:45;21.65;;;9.70;;
37237;SDS011;23129;49.662;8.448;2023-03-01T09:49:15;17.85;;;10.02;;
37237;SDS011;23129;49.662;8.448;2023-03-01T09:51:50;21.13;;;9.60;;
37237;SDS011;23129;49.662;8.448;2023-03-01T09:54:27;14.45;;;9.05;;
37237;SDS011;23129;49.662;8.448;2023-03-01T09:57:04;18.92;;;10.07;;
37237;SDS011;23129;49.662;8.448;2023-03-01T09:59:48;21.75;;;10.88;;
37237;SDS011;23129;49.662;8.448;2023-03-01T10:02:38;20.60;;;10.75;;
37237;SDS011;23129;49.662;8.448;2023-03-01T10:05:26;15.68;;;9.18;;
37237;SDS011;23129;49.662;8.448;2023-03-01T10:08:18;21.90;;;10.32;;
37237;SDS011;23129;49.662;8.448;2023-03-01T10:10:59;19.75;;;10.38;;
37237;SDS011;23129;49.662;8.448;2023-03-01T10:13:29;25.38;;;10.70;;
37237;SDS011;23129;49.662;8.448;2023-03-01T10:16:12;19.20;;;10.23;;
37237;SDS011;23129;49.662;8.448;2023-03-01T10:18:45;18.27;;;10.48;;
37237;SDS011;23129;49.662;8.448;2023-03-01T10:21:19;16.85;;;10.23;;
37237;SDS011;23129;49.662;8.448;2023-03-01T10:23:49;18.15;;;10.70;;
37237;SDS011;23129;49.662;8.448;2023-03-01T10:26:28;27.13;;;11.98;;
37237;SDS011;23129;49.662;8.448;2023-03-01T10:29:11;22.63;;;10.90;;
37237;SDS011;23129;49.662;8.448;2023-03-01T10:31:41;18.77;;;10.02;;
37237;SDS011;23129;49.662;8.448;2023-03-01T10:34:13;23.70;;;11.35;;
37237;SDS011;23129;49.662;8.448;2023-03-01T10:36:47;20.40;;;10.82;;
37237;SDS011;23129;49.662;8.448;2023-03-01T10:39:18;17.98;;;10.30;;
37237;SDS011;23129;49.662;8.448;2023-03-01T10:41:58;22.70;;;11.30;;
37237;SDS011;23129;49.662;8.448;2023-03-01T10:47:17;20.30;;;11.10;;
37237;SDS011;23129;49.662;8.448;2023-03-01T10:49:58;20.60;;;11.02;;
37237;SDS011;23129;49.662;8.448;2023-03-01T10:52:29;22.48;;;10.88;;
37237;SDS011;23129;49.662;8.448;2023-03-01T10:55:02;21.85;;;10.77;;
37237;SDS011;23129;49.662;8.448;2023-03-01T10:57:55;22.95;;;10.75;;
37237;SDS011;23129;49.662;8.448;2023-03-01T11:00:45;18.83;;;10.57;;
37237;SDS011;23129;49.662;8.448;2023-03-01T11:03:18;28.73;;;11.95;;
37237;SDS011;23129;49.662;8.448;2023-03-01T11:05:54;17.23;;;10.30;;
37237;SDS011;23129;49.662;8.448;2023-03-01T11:08:30;22.33;;;11.25;;
37237;SDS011;23129;49.662;8.448;2023-03-01T11:11:06;21.30;;;11.13;;
37237;SDS011;23129;49.662;8.448;2023-03-01T11:13:55;19.80;;;10.35;;
37237;SDS011;23129;49.662;8.448;2023-03-01T11:16:28;24.35;;;11.43;;
37237;SDS011;23129;49.662;8.448;2023-03-01T11:19:04;25.25;;;10.15;;
37237;SDS011;23129;49.662;8.448;2023-03-01T11:21:53;17.67;;;10.47;;
37237;SDS011;23129;49.662;8.448;2023-03-01T11:24:33;21.42;;;10.32;;
37237;SDS011;23129;49.662;8.448;2023-03-01T11:27:18;19.30;;;9.50;;
37237;SDS011;23129;49.662;8.448;2023-03-01T11:29:55;16.77;;;10.93;;
37237;SDS011;23129;49.662;8.448;2023-03-01T11:32:31;17.60;;;10.05;;
37237;SDS011;23129;49.662;8.448;2023-03-01T11:35:09;18.42;;;9.45;;
37237;SDS011;23129;49.662;8.448;2023-03-01T11:37:46;23.25;;;9.35;;
37237;SDS011;23129;49.662;8.448;2023-03-01T11:40:29;15.15;;;8.98;;
37237;SDS011;23129;49.662;8.448;2023-03-01T11:43:04;15.93;;;9.82;;
37237;SDS011;23129;49.662;8.448;2023-03-01T11:45:57;16.60;;;9.90;;
37237;SDS011;23129;49.662;8.448;2023-03-01T11:48:58;49.00;;;22.70;;
37237;SDS011;23129;49.662;8.448;2023-03-01T11:51:46;24.58;;;12.88;;
37237;SDS011;23129;49.662;8.448;2023-03-01T11:54:27;19.23;;;10.80;;
37237;SDS011;23129;49.662;8.448;2023-03-01T11:57:13;18.58;;;11.10;;
37237;SDS011;23129;49.662;8.448;2023-03-01T12:00:13;19.00;;;9.98;;
37237;SDS011;23129;49.662;8.448;2023-03-01T12:03:16;21.67;;;10.85;;
37237;SDS011;23129;49.662;8.448;2023-03-01T12:06:05;19.83;;;11.30;;
37237;SDS011;23129;49.662;8.448;2023-03-01T12:08:52;22.05;;;10.52;;
37237;SDS011;23129;49.662;8.448;2023-03-01T12:11:36;16.48;;;9.77;;
37237;SDS011;23129;49.662;8.448;2023-03-01T12:14:30;15.23;;;8.98;;
37237;SDS011;23129;49.662;8.448;2023-03-01T12:17:26;14.18;;;8.82;;
37237;SDS011;23129;49.662;8.448;2023-03-01T12:20:24;16.37;;;9.33;;
37237;SDS011;23129;49.662;8.448;2023-03-01T12:26:17;18.13;;;9.93;;
37237;SDS011;23129;49.662;8.448;2023-03-01T12:28:57;17.73;;;10.15;;
37237;SDS011;23129;49.662;8.448;2023-03-01T12:31:46;19.05;;;10.45;;
37237;SDS011;23129;49.662;8.448;2023-03-01T12:35:01;20.48;;;9.57;;
37237;SDS011;23129;49.662;8.448;2023-03-01T12:37:50;18.45;;;9.48;;
37237;SDS011;23129;49.662;8.448;2023-03-01T12:40:33;22.75;;;10.38;;
37237;SDS011;23129;49.662;8.448;2023-03-01T12:43:41;19.20;;;8.93;;
37237;SDS011;23129;49.662;8.448;2023-03-01T12:46:25;21.15;;;10.43;;
37237;SDS011;23129;49.662;8.448;2023-03-01T12:49:10;19.02;;;10.45;;
37237;SDS011;23129;49.662;8.448;2023-03-01T12:51:42;16.60;;;9.50;;
37237;SDS011;23129;49.662;8.448;2023-03-01T12:54:23;14.68;;;9.15;;
37237;SDS011;23129;49.662;8.448;2023-03-01T12:56:55;20.83;;;8.77;;
37237;SDS011;23129;49.662;8.448;2023-03-01T12:59:31;14.00;;;9.00;;
37237;SDS011;23129;49.662;8.448;2023-03-01T13:02:09;14.93;;;8.88;;
37237;SDS011;23129;49.662;8.448;2023-03-01T13:04:50;16.38;;;8.35;;
37237;SDS011;23129;49.662;8.448;2023-03-01T13:07:30;19.38;;;9.43;;
37237;SDS011;23129;49.662;8.448;2023-03-01T13:10:10;16.75;;;9.45;;
37237;SDS011;23129;49.662;8.448;2023-03-01T13:12:51;16.20;;;9.38;;
37237;SDS011;23129;49.662;8.448;2023-03-01T13:15:33;20.27;;;8.65;;
37237;SDS011;23129;49.662;8.448;2023-03-01T13:18:03;15.40;;;7.85;;
37237;SDS011;23129;49.662;8.448;2023-03-01T13:20:58;18.85;;;8.10;;
37237;SDS011;23129;49.662;8.448;2023-03-01T13:23:30;15.20;;;8.00;;
37237;SDS011;23129;49.662;8.448;2023-03-01T13:26:03;14.40;;;7.55;;
37237;SDS011;23129;49.662;8.448;2023-03-01T13:28:47;15.60;;;7.35;;
37237;SDS011;23129;49.662;8.448;2023-03-01T13:34:40;13.40;;;8.40;;
37237;SDS011;23129;49.662;8.448;2023-03-01T13:37:20;26.27;;;12.05;;
37237;SDS011;23129;49.662;8.448;2023-03-01T13:39:56;15.15;;;7.82;;
37237;SDS011;23129;49.662;8.448;2023-03-01T13:42:32;17.75;;;7.43;;
37237;SDS011;23129;49.662;8.448;2023-03-01T13:45:05;13.73;;;7.77;;
37237;SDS011;23129;49.662;8.448;2023-03-01T13:48:01;13.90;;;7.25;;
37237;SDS011;23129;49.662;8.448;2023-03-01T13:50:38;13.50;;;6.78;;
37237;SDS011;23129;49.662;8.448;2023-03-01T13:53:14;14.52;;;7.65;;
37237;SDS011;23129;49.662;8.448;2023-03-01T13:55:47;9.57;;;6.45;;
37237;SDS011;23129;49.662;8.448;2023-03-01T13:58:19;21.25;;;7.55;;
37237;SDS011;23129;49.662;8.448;2023-03-01T14:00:55;14.00;;;6.45;;
37237;SDS011;23129;49.662;8.448;2023-03-01T14:03:26;10.85;;;6.68;;
37237;SDS011;23129;49.662;8.448;2023-03-01T14:06:02;28.50;;;7.80;;
37237;SDS011;23129;49.662;8.448;2023-03-01T14:08:43;12.68;;;6.18;;
37237;SDS011;23129;49.662;8.448;2023-03-01T14:14:41;14.00;;;5.70;;
37237;SDS011;23129;49.662;8.448;2023-03-01T14:17:19;9.35;;;6.13;;
37237;SDS011;23129;49.662;8.448;2023-03-01T14:20:18;13.45;;;5.43;;
37237;SDS011;23129;49.662;8.448;2023-03-01T14:22:51;10.82;;;5.85;;
37237;SDS011;23129;49.662;8.448;2023-03-01T14:25:23;10.25;;;6.00;;
37237;SDS011;23129;49.662;8.448;2023-03-01T14:27:57;15.63;;;7.30;;
37237;SDS011;23129;49.662;8.448;2023-03-01T14:30:32;12.50;;;7.43;;
37237;SDS011;23129;49.662;8.448;2023-03-01T14:33:06;12.90;;;7.10;;
37237;SDS011;23129;49.662;8.448;2023-03-01T14:35:52;11.82;;;6.82;;
37237;SDS011;23129;49.662;8.448;2023-03-01T14:38:31;12.15;;;6.55;;
37237;SDS011;23129;49.662;8.448;2023-03-01T14:41:03;15.07;;;6.43;;
37237;SDS011;23129;49.662;8.448;2023-03-01T14:43:35;15.65;;;6.40;;
37237;SDS011;23129;49.662;8.448;2023-03-01T14:46:16;15.05;;;6.20;;
37237;SDS011;23129;49.662;8.448;2023-03-01T14:48:48;10.55;;;7.00;;
37237;SDS011;23129;49.662;8.448;2023-03-01T14:51:18;15.27;;;6.93;;
37237;SDS011;23129;49.662;8.448;2023-03-01T14:53:48;10.98;;;7.07;;
37237;SDS011;23129;49.662;8.448;2023-03-01T14:56:17;11.48;;;6.50;;
37237;SDS011;23129;49.662;8.448;2023-03-01T14:58:48;11.40;;;6.40;;
37237;SDS011;23129;49.662;8.448;2023-03-01T15:01:20;9.98;;;6.07;;
37237;SDS011;23129;49.662;8.448;2023-03-01T15:03:49;14.15;;;5.88;;
37237;SDS011;23129;49.662;8.448;2023-03-01T15:06:18;11.95;;;6.20;;
37237;SDS011;23129;49.662;8.448;2023-03-01T15:08:51;12.07;;;6.95;;
37237;SDS011;23129;49.662;8.448;2023-03-01T15:11:23;14.70;;;7.50;;
37237;SDS011;23129;49.662;8.448;2023-03-01T15:13:56;11.35;;;7.13;;
37237;SDS011;23129;49.662;8.448;2023-03-01T15:16:26;12.15;;;5.97;;
37237;SDS011;23129;49.662;8.448;2023-03-01T15:18:57;10.45;;;5.95;;
37237;SDS011;23129;49.662;8.448;2023-03-01T15:21:29;11.07;;;6.75;;
37237;SDS011;23129;49.662;8.448;2023-03-01T15:24:02;15.80;;;6.28;;
37237;SDS011;23129;49.662;8.448;2023-03-01T15:26:44;13.05;;;6.45;;